Time;durP1;ratioP1;P1;durP2;ratioP2;P2;SDS_P1;SDS_P2;PMS_P1;PMS_P2;Temp;Humidity;BMP_temperature;BMP_pressure;BME280_temperature;BME280_humidity;BME280_pressure;Samples;Min_cycle;Max_cycle;Signal;HPM_P1;HPM_P2
2020/12/16 00:01:03;;;;;;;190.88;40.67;;;6.90;99.90;;;;;;4901667;29;20487;-84
2020/12/16 00:03:29;;;;;;;103.10;38.78;;;6.90;99.90;;;;;;4898403;29;20104;-82
2020/12/16 00:05:55;;;;;;;155.82;36.35;;;6.90;99.90;;;;;;4900543;29;20039;-83
2020/12/16 00:08:21;;;;;;;146.05;38.88;;;6.90;99.90;;;;;;4899211;29;20096;-84
2020/12/16 00:10:46;;;;;;;90.22;35.85;;;6.90;99.90;;;;;;4899031;29;20552;-82
2020/12/16 00:13:12;;;;;;;134.00;38.30;;;6.90;99.90;;;;;;4883066;29;20036;-83
2020/12/16 00:15:38;;;;;;;128.48;34.28;;;6.90;99.90;;;;;;4898403;29;20037;-83
2020/12/16 00:18:04;;;;;;;80.35;33.03;;;6.90;99.90;;;;;;4885429;29;20043;-83
2020/12/16 00:20:30;;;;;;;180.65;48.08;;;7.00;99.90;;;;;;4882245;29;20483;-83
2020/12/16 00:22:56;;;;;;;110.18;38.83;;;6.90;99.90;;;;;;4899769;29;20176;-82
2020/12/16 00:25:21;;;;;;;80.28;37.95;;;6.90;99.90;;;;;;4882827;29;20135;-83
2020/12/16 00:27:47;;;;;;;120.93;45.15;;;6.90;99.90;;;;;;4893089;29;20099;-82
2020/12/16 00:30:13;;;;;;;114.57;44.33;;;6.90;99.90;;;;;;4931576;29;20384;-84
2020/12/16 00:32:39;;;;;;;51.30;33.65;;;7.00;99.90;;;;;;4883357;29;20043;-82
2020/12/16 00:35:07;;;;;;;120.45;40.47;;;7.00;99.90;;;;;;4901510;29;20079;-83
2020/12/16 00:37:43;;;;;;;83.10;39.45;;;7.00;99.90;;;;;;4898887;29;20028;-82
2020/12/16 00:40:10;;;;;;;89.00;43.47;;;7.00;99.90;;;;;;4901075;29;20127;-83
2020/12/16 00:42:36;;;;;;;78.07;38.85;;;7.00;99.90;;;;;;4900845;29;20177;-82
2020/12/16 00:45:05;;;;;;;100.97;46.20;;;7.00;99.90;;;;;;4901293;29;20562;-82
2020/12/16 00:47:37;;;;;;;129.73;46.75;;;7.00;99.90;;;;;;4898441;29;20036;-83
2020/12/16 00:50:04;;;;;;;90.80;41.67;;;7.00;99.90;;;;;;4901511;29;20039;-83
2020/12/16 00:52:29;;;;;;;65.55;36.50;;;7.10;99.90;;;;;;4898075;29;20059;-84
2020/12/16 00:54:55;;;;;;;80.18;41.13;;;7.00;99.90;;;;;;4884038;29;20471;-83
2020/12/16 00:57:21;;;;;;;68.78;37.83;;;7.10;99.90;;;;;;4897423;29;20052;-83
2020/12/16 00:59:47;;;;;;;95.90;41.45;;;7.10;99.90;;;;;;4882137;29;20040;-81
2020/12/16 01:02:13;;;;;;;74.03;36.67;;;7.20;99.90;;;;;;4874838;29;20064;-84
2020/12/16 01:04:39;;;;;;;76.63;38.08;;;7.20;99.90;;;;;;4897911;29;20427;-83
2020/12/16 01:07:04;;;;;;;64.50;36.28;;;7.20;99.90;;;;;;4897814;29;20115;-83
2020/12/16 01:09:30;;;;;;;63.20;34.65;;;7.20;99.90;;;;;;4893361;29;20427;-82
2020/12/16 01:11:56;;;;;;;122.75;51.92;;;7.20;99.90;;;;;;4898059;29;20051;-83
2020/12/16 01:14:22;;;;;;;65.57;35.83;;;7.20;99.90;;;;;;4876235;29;20036;-82
2020/12/16 01:16:49;;;;;;;81.90;37.85;;;7.20;99.90;;;;;;4897674;29;20048;-83
2020/12/16 01:19:14;;;;;;;88.20;35.30;;;7.10;99.90;;;;;;4891481;29;20152;-83
2020/12/16 01:21:40;;;;;;;154.68;51.50;;;7.10;99.90;;;;;;4882428;29;20132;-82
2020/12/16 01:24:06;;;;;;;83.68;35.85;;;7.00;99.90;;;;;;4882686;29;20048;-83
2020/12/16 01:26:40;;;;;;;86.80;36.97;;;6.90;99.90;;;;;;4878613;29;20135;-81
2020/12/16 01:29:08;;;;;;;126.97;36.57;;;6.90;99.90;;;;;;4885076;29;20124;-82
2020/12/16 01:31:39;;;;;;;152.43;39.20;;;6.90;99.90;;;;;;4900761;29;20040;-83
2020/12/16 01:34:04;;;;;;;161.15;38.47;;;6.70;99.90;;;;;;4904097;29;20061;-82
2020/12/16 01:36:30;;;;;;;188.30;40.88;;;6.70;99.90;;;;;;4903945;29;20428;-83
2020/12/16 01:38:56;;;;;;;186.88;43.00;;;6.70;99.90;;;;;;4900716;29;20056;-83
2020/12/16 01:41:22;;;;;;;108.07;35.13;;;6.70;99.90;;;;;;4895945;29;20360;-83
2020/12/16 01:43:48;;;;;;;190.20;46.40;;;6.80;99.90;;;;;;4901559;29;20107;-85
2020/12/16 01:46:13;;;;;;;98.18;35.58;;;6.70;99.90;;;;;;4878892;29;20072;-83
2020/12/16 01:48:40;;;;;;;126.80;37.60;;;6.70;99.90;;;;;;4885811;29;20037;-83
2020/12/16 01:51:07;;;;;;;110.78;38.95;;;6.70;99.90;;;;;;4900906;29;20029;-83
2020/12/16 01:53:33;;;;;;;96.25;36.13;;;6.70;99.90;;;;;;4880917;29;20036;-82
2020/12/16 01:56:00;;;;;;;196.93;46.80;;;6.70;99.90;;;;;;4900745;29;20028;-83
2020/12/16 01:58:28;;;;;;;85.55;36.03;;;6.70;99.90;;;;;;4897456;29;20048;-82
2020/12/16 02:00:58;;;;;;;120.90;39.58;;;6.70;99.90;;;;;;4901287;29;20471;-83
2020/12/16 02:03:25;;;;;;;128.77;41.45;;;6.60;99.90;;;;;;4901906;29;20502;-82
2020/12/16 02:05:55;;;;;;;137.27;40.65;;;6.60;99.90;;;;;;4898528;29;20563;-83
2020/12/16 02:08:26;;;;;;;137.55;40.45;;;6.70;99.90;;;;;;4894699;29;20486;-82
2020/12/16 02:10:53;;;;;;;150.70;40.72;;;6.60;99.90;;;;;;4902334;29;20028;-83
2020/12/16 02:13:18;;;;;;;116.93;42.50;;;6.60;99.90;;;;;;4878380;29;20040;-82
2020/12/16 02:15:44;;;;;;;237.57;61.97;;;6.50;99.90;;;;;;4884848;29;20039;-82
2020/12/16 02:18:10;;;;;;;120.47;41.70;;;6.50;99.90;;;;;;4901606;29;20455;-83
2020/12/16 02:20:35;;;;;;;104.47;40.33;;;6.40;99.90;;;;;;4880861;29;20471;-83
2020/12/16 02:23:08;;;;;;;161.35;44.83;;;6.40;99.90;;;;;;4900153;29;20072;-82
2020/12/16 02:25:34;;;;;;;121.35;43.80;;;6.40;99.90;;;;;;4880793;29;20398;-82
2020/12/16 02:28:00;;;;;;;147.93;44.13;;;6.40;99.90;;;;;;4885398;29;20067;-84
2020/12/16 02:30:25;;;;;;;138.10;43.85;;;6.40;99.90;;;;;;4896771;29;20025;-83
2020/12/16 02:32:51;;;;;;;206.75;53.13;;;6.40;99.90;;;;;;4911218;29;20157;-81
2020/12/16 02:35:17;;;;;;;146.95;44.85;;;6.30;99.90;;;;;;4893660;29;20172;-83
2020/12/16 02:37:42;;;;;;;240.32;51.67;;;6.30;99.90;;;;;;4899580;29;20035;-81
2020/12/16 02:40:08;;;;;;;225.45;55.50;;;6.30;99.90;;;;;;4907359;29;20056;-82
2020/12/16 02:42:34;;;;;;;167.18;48.00;;;6.20;99.90;;;;;;4902902;29;20047;-81
2020/12/16 02:44:59;;;;;;;271.50;65.13;;;6.30;99.90;;;;;;4920590;29;20033;-83
2020/12/16 02:47:26;;;;;;;188.98;54.15;;;6.30;99.90;;;;;;4886871;29;20017;-82
2020/12/16 02:49:52;;;;;;;126.57;48.30;;;6.20;99.90;;;;;;4923901;29;20042;-82
2020/12/16 02:52:18;;;;;;;275.88;65.63;;;6.30;99.90;;;;;;4924566;29;20036;-82
2020/12/16 02:54:43;;;;;;;158.60;49.65;;;6.30;99.90;;;;;;4920744;29;20013;-83
2020/12/16 02:57:09;;;;;;;159.93;49.38;;;6.30;99.90;;;;;;4913974;29;20082;-83
2020/12/16 02:59:35;;;;;;;283.20;72.95;;;6.40;99.90;;;;;;4923176;29;20037;-82
2020/12/16 03:02:01;;;;;;;175.43;50.13;;;6.40;99.90;;;;;;4910411;29;20047;-91
2020/12/16 03:04:27;;;;;;;146.32;49.95;;;6.40;99.90;;;;;;4943207;29;20055;-83
2020/12/16 03:06:54;;;;;;;235.18;58.97;;;6.50;99.90;;;;;;4909492;29;20064;-81
2020/12/16 03:09:21;;;;;;;148.10;50.58;;;6.50;99.90;;;;;;4923610;29;20033;-83
2020/12/16 03:12:05;;;;;;;180.25;55.83;;;6.50;99.90;;;;;;4919312;29;20021;-83
2020/12/16 03:14:31;;;;;;;181.43;59.05;;;6.50;99.90;;;;;;4906053;29;20029;-83
2020/12/16 03:16:56;;;;;;;167.68;58.38;;;6.50;99.90;;;;;;4924931;29;20057;-91
2020/12/16 03:19:22;;;;;;;199.02;62.33;;;6.50;99.90;;;;;;4923479;29;20012;-83
2020/12/16 03:21:48;;;;;;;157.13;55.40;;;6.60;99.90;;;;;;4908386;29;20036;-83
2020/12/16 03:24:13;;;;;;;244.23;71.13;;;6.60;99.90;;;;;;4923401;29;20107;-83
2020/12/16 03:26:40;;;;;;;150.55;54.30;;;6.50;99.90;;;;;;4904536;29;20052;-83
2020/12/16 03:29:06;;;;;;;114.78;51.58;;;6.50;99.90;;;;;;4921953;29;20077;-83
2020/12/16 03:31:32;;;;;;;159.85;57.50;;;6.60;99.90;;;;;;4917918;29;20017;-83
2020/12/16 03:33:57;;;;;;;160.32;58.83;;;6.60;99.90;;;;;;4920468;29;20037;-87
2020/12/16 03:36:23;;;;;;;216.90;67.63;;;6.60;99.90;;;;;;4887700;29;20447;-83
2020/12/16 03:38:49;;;;;;;153.15;61.25;;;6.50;99.90;;;;;;4884343;29;20516;-83
2020/12/16 03:41:16;;;;;;;164.00;62.53;;;6.50;99.90;;;;;;4882952;29;20028;-83
2020/12/16 03:43:47;;;;;;;153.85;58.47;;;6.50;99.90;;;;;;4898633;29;20048;-82
2020/12/16 03:46:13;;;;;;;411.67;105.75;;;6.60;99.90;;;;;;4918468;29;20499;-83
2020/12/16 03:48:40;;;;;;;197.55;65.35;;;6.60;99.90;;;;;;4898215;29;20475;-84
2020/12/16 03:51:08;;;;;;;151.63;58.03;;;6.60;99.90;;;;;;4898650;29;20089;-82
2020/12/16 03:53:35;;;;;;;185.07;62.08;;;6.60;99.90;;;;;;4897778;29;20119;-83
2020/12/16 03:56:08;;;;;;;143.38;56.92;;;6.60;99.90;;;;;;4917600;29;20032;-83
2020/12/16 03:58:35;;;;;;;182.77;60.28;;;6.60;99.90;;;;;;4884742;29;20056;-82
2020/12/16 04:01:08;;;;;;;203.35;63.20;;;6.50;99.90;;;;;;4902134;29;20123;-84
2020/12/16 04:03:34;;;;;;;203.18;61.72;;;6.50;99.90;;;;;;4898523;29;20039;-84
2020/12/16 04:06:00;;;;;;;182.55;62.28;;;6.50;99.90;;;;;;4900670;29;20403;-87
2020/12/16 04:08:26;;;;;;;208.98;62.30;;;6.50;99.90;;;;;;4918342;29;20059;-83
2020/12/16 04:10:52;;;;;;;191.85;63.15;;;6.50;99.90;;;;;;4884123;29;20112;-83
2020/12/16 04:13:17;;;;;;;196.52;61.90;;;6.40;99.90;;;;;;4882217;29;20058;-83
2020/12/16 04:15:46;;;;;;;257.40;70.80;;;6.30;99.90;;;;;;4915055;29;20435;-83
2020/12/16 04:18:12;;;;;;;209.48;67.95;;;6.30;99.90;;;;;;4917778;29;20047;-83
2020/12/16 04:20:38;;;;;;;234.02;71.53;;;6.30;99.90;;;;;;4897964;29;20033;-83
2020/12/16 04:23:04;;;;;;;286.63;78.97;;;6.30;99.90;;;;;;4901053;29;20482;-83
2020/12/16 04:25:30;;;;;;;268.38;77.00;;;6.20;99.90;;;;;;4897828;29;20040;-83
2020/12/16 04:27:56;;;;;;;168.45;60.60;;;6.20;99.90;;;;;;4884362;29;20043;-83
2020/12/16 04:30:23;;;;;;;279.67;73.35;;;6.20;99.90;;;;;;4882341;29;20501;-82
2020/12/16 04:32:52;;;;;;;155.70;60.05;;;6.10;99.90;;;;;;4883058;29;20032;-83
2020/12/16 04:35:20;;;;;;;260.65;80.60;;;6.10;99.90;;;;;;4882413;29;20029;-82
2020/12/16 04:37:49;;;;;;;281.30;80.93;;;6.10;99.90;;;;;;4898351;29;20037;-82
2020/12/16 04:40:15;;;;;;;284.92;75.25;;;6.10;99.90;;;;;;4897449;29;20036;-82
2020/12/16 04:42:41;;;;;;;335.27;86.85;;;6.10;99.90;;;;;;4897847;29;20032;-83
2020/12/16 04:45:08;;;;;;;187.05;64.32;;;6.00;99.90;;;;;;4897671;29;20483;-82
2020/12/16 04:47:34;;;;;;;242.30;67.80;;;6.00;99.90;;;;;;4898111;29;20029;-82
2020/12/16 04:49:59;;;;;;;235.77;69.55;;;6.00;99.90;;;;;;4899901;29;20037;-83
2020/12/16 04:52:27;;;;;;;169.70;60.95;;;6.10;99.90;;;;;;4882443;29;20036;-84
2020/12/16 04:54:54;;;;;;;330.63;85.43;;;6.10;99.90;;;;;;4899578;29;20040;-83
2020/12/16 04:57:21;;;;;;;262.65;63.70;;;6.00;99.90;;;;;;4897570;29;20063;-83
2020/12/16 04:59:46;;;;;;;278.08;74.03;;;6.00;99.90;;;;;;4895285;29;20128;-84
2020/12/16 05:02:12;;;;;;;354.88;91.68;;;6.00;99.90;;;;;;4917412;29;20526;-83
2020/12/16 05:04:37;;;;;;;219.60;60.70;;;5.90;99.90;;;;;;4900995;29;20046;-83
2020/12/16 05:07:03;;;;;;;227.52;68.15;;;6.00;99.90;;;;;;4884942;29;20028;-83
2020/12/16 05:09:29;;;;;;;200.40;63.22;;;6.00;99.90;;;;;;4900361;29;20032;-83
2020/12/16 05:11:54;;;;;;;291.73;76.25;;;5.90;99.90;;;;;;4900520;29;20500;-84
2020/12/16 05:14:24;;;;;;;205.63;64.07;;;6.00;99.90;;;;;;4917256;29;20040;-83
2020/12/16 05:17:00;;;;;;;310.88;77.55;;;6.00;99.90;;;;;;4885034;29;20036;-82
2020/12/16 05:19:35;;;;;;;181.40;63.50;;;6.00;99.90;;;;;;4917506;29;20111;-83
2020/12/16 05:22:10;;;;;;;249.73;72.57;;;6.00;99.90;;;;;;4900288;29;20032;-82
2020/12/16 05:24:36;;;;;;;220.07;65.95;;;6.10;99.90;;;;;;4900558;29;20058;-83
2020/12/16 05:27:02;;;;;;;288.50;78.68;;;6.20;99.90;;;;;;4900281;29;20028;-82
2020/12/16 05:29:28;;;;;;;200.40;62.53;;;6.10;99.90;;;;;;4884569;29;20036;-82
2020/12/16 05:31:54;;;;;;;243.15;73.53;;;6.20;99.90;;;;;;4885699;29;20083;-83
2020/12/16 05:34:28;;;;;;;441.33;103.57;;;6.20;99.90;;;;;;4901795;29;20160;-83
2020/12/16 05:36:53;;;;;;;302.13;80.00;;;6.20;99.90;;;;;;4917751;29;20031;-82
2020/12/16 05:39:19;;;;;;;274.88;74.97;;;6.20;99.90;;;;;;4936222;29;20032;-83
2020/12/16 05:41:54;;;;;;;191.60;62.28;;;6.20;99.90;;;;;;4917364;29;20498;-83
2020/12/16 05:44:20;;;;;;;;;;;6.30;99.90;;;;;;4900728;29;20028;-82
2020/12/16 05:46:48;;;;;;;183.63;64.68;;;6.30;99.90;;;;;;4895881;29;19911;-83
2020/12/16 05:49:40;;;;;;;233.95;67.90;;;6.30;99.90;;;;;;4920606;29;20059;-83
2020/12/16 05:52:06;;;;;;;219.23;65.60;;;6.20;99.90;;;;;;4898325;29;20450;-83
2020/12/16 05:54:37;;;;;;;189.50;61.00;;;6.20;99.90;;;;;;4900267;29;20486;-83
2020/12/16 05:57:18;;;;;;;203.45;64.70;;;6.20;99.90;;;;;;4917185;29;20024;-83
2020/12/16 06:00:05;;;;;;;201.80;63.60;;;6.20;99.90;;;;;;4902291;29;20024;-82
2020/12/16 06:02:41;;;;;;;349.95;81.15;;;6.10;99.90;;;;;;4896144;29;20052;-83
2020/12/16 06:05:12;;;;;;;237.13;68.20;;;6.10;99.90;;;;;;4881598;29;20072;-83
2020/12/16 06:07:43;;;;;;;183.45;59.20;;;6.00;99.90;;;;;;4897258;29;20088;-83
2020/12/16 06:10:09;;;;;;;250.70;66.47;;;6.10;99.90;;;;;;4896929;29;20025;-83
2020/12/16 06:12:39;;;;;;;206.75;62.80;;;6.10;99.90;;;;;;4913062;29;20051;-83
2020/12/16 06:15:15;;;;;;;251.98;63.05;;;6.00;99.90;;;;;;4900454;29;20120;-83
2020/12/16 06:17:42;;;;;;;190.45;57.78;;;5.90;99.90;;;;;;4902469;29;20033;-84
2020/12/16 06:20:14;;;;;;;172.20;55.55;;;6.00;99.90;;;;;;4903362;29;20088;-83
2020/12/16 06:22:42;;;;;;;181.85;56.88;;;6.00;99.90;;;;;;4903721;29;20043;-84
2020/12/16 06:25:08;;;;;;;190.43;56.90;;;5.90;99.90;;;;;;4903309;29;20028;-83
2020/12/16 06:27:49;;;;;;;207.50;56.05;;;5.80;99.90;;;;;;4919861;29;20483;-84
2020/12/16 06:30:28;;;;;;;209.85;59.88;;;5.80;99.90;;;;;;4881313;29;20032;-85
2020/12/16 06:33:24;;;;;;;274.52;71.28;;;5.80;99.90;;;;;;4903048;29;20066;-83
2020/12/16 06:35:54;;;;;;;209.82;59.03;;;5.70;99.90;;;;;;4901114;29;20024;-85
2020/12/16 06:38:22;;;;;;;151.18;51.90;;;5.70;99.90;;;;;;4885112;29;20064;-83
2020/12/16 06:40:56;;;;;;;206.07;61.92;;;5.70;99.90;;;;;;4917504;29;20399;-84
2020/12/16 06:43:31;;;;;;;249.63;65.15;;;5.70;99.90;;;;;;4919867;29;20035;-84
2020/12/16 06:45:58;;;;;;;;;;;5.70;99.90;;;;;;4901911;29;20554;-83
2020/12/16 06:48:36;;;;;;;209.00;64.57;;;5.70;99.90;;;;;;4919986;29;19914;-82
2020/12/16 06:51:21;;;;;;;139.00;53.80;;;5.70;99.90;;;;;;4886873;29;20029;-84
2020/12/16 06:53:48;;;;;;;142.40;50.10;;;5.70;99.90;;;;;;4900471;29;20032;-84
2020/12/16 06:56:23;;;;;;;115.28;47.78;;;5.70;99.90;;;;;;4900273;29;20059;-83
2020/12/16 06:58:48;;;;;;;133.52;52.05;;;5.80;99.90;;;;;;4884218;29;20104;-83
2020/12/16 07:01:18;;;;;;;136.10;48.95;;;5.80;99.90;;;;;;4862078;29;20033;-84
2020/12/16 07:03:44;;;;;;;223.90;65.25;;;5.80;99.90;;;;;;4884715;29;20037;-83
2020/12/16 07:06:11;;;;;;;164.73;54.67;;;5.80;99.90;;;;;;4876696;29;20043;-84
2020/12/16 07:08:37;;;;;;;127.00;50.00;;;5.80;99.90;;;;;;4901494;29;20032;-83
2020/12/16 07:11:03;;;;;;;123.93;51.50;;;5.90;99.90;;;;;;4898793;29;20103;-84
2020/12/16 07:13:34;;;;;;;143.32;52.35;;;5.90;99.90;;;;;;4894652;29;20047;-84
2020/12/16 07:16:07;;;;;;;233.23;65.03;;;5.90;99.90;;;;;;4901734;29;20071;-83
2020/12/16 07:18:43;;;;;;;113.72;47.92;;;5.90;99.90;;;;;;4896111;29;20060;-83
2020/12/16 07:21:09;;;;;;;130.60;50.30;;;5.90;99.90;;;;;;4900153;29;20028;-83
2020/12/16 07:23:49;;;;;;;167.02;57.70;;;6.00;99.90;;;;;;4901075;29;20100;-83
2020/12/16 07:26:24;;;;;;;110.55;48.05;;;6.00;99.90;;;;;;4893428;29;20526;-84
2020/12/16 07:28:50;;;;;;;162.63;58.13;;;6.00;99.90;;;;;;4899822;29;20512;-84
2020/12/16 07:31:16;;;;;;;110.25;48.50;;;6.00;99.90;;;;;;4877813;29;20033;-82
2020/12/16 07:33:42;;;;;;;138.77;53.33;;;6.00;99.90;;;;;;4885899;29;20499;-84
2020/12/16 07:36:08;;;;;;;129.73;51.22;;;6.10;99.90;;;;;;4901851;29;20032;-83
2020/12/16 07:38:34;;;;;;;104.30;46.92;;;6.10;99.90;;;;;;4901241;29;20047;-82
2020/12/16 07:41:01;;;;;;;147.18;53.65;;;6.20;99.90;;;;;;4903577;29;20424;-83
2020/12/16 07:43:27;;;;;;;129.27;52.03;;;6.20;99.90;;;;;;4902388;29;20028;-83
2020/12/16 07:46:07;;;;;;;215.18;67.57;;;6.20;99.90;;;;;;4886544;29;20088;-84
2020/12/16 07:48:36;;;;;;;222.90;62.38;;;6.10;99.90;;;;;;4899669;29;20043;-84
2020/12/16 07:51:11;;;;;;;207.55;62.63;;;6.10;99.90;;;;;;4904214;29;20051;-82
2020/12/16 07:53:42;;;;;;;;;;;6.10;99.90;;;;;;4897464;29;20059;-83
2020/12/16 07:56:08;;;;;;;136.35;50.47;;;6.10;99.90;;;;;;4901824;29;19907;-84
2020/12/16 07:58:34;;;;;;;113.22;44.20;;;6.10;99.90;;;;;;4895689;29;20069;-82
2020/12/16 08:01:27;;;;;;;142.57;50.97;;;6.10;99.90;;;;;;4884541;29;20064;-82
2020/12/16 08:03:53;;;;;;;102.70;45.72;;;6.10;99.90;;;;;;4895378;29;20104;-83
2020/12/16 08:06:19;;;;;;;162.95;56.22;;;6.20;99.90;;;;;;4877946;29;20479;-82
2020/12/16 08:08:51;;;;;;;175.00;56.80;;;6.20;99.90;;;;;;4899470;29;20524;-83
2020/12/16 08:11:27;;;;;;;217.27;69.15;;;6.20;99.90;;;;;;4909092;29;20041;-82
2020/12/16 08:14:08;;;;;;;203.13;60.95;;;6.20;99.90;;;;;;4908993;29;20068;-83
2020/12/16 08:16:34;;;;;;;120.43;45.25;;;6.10;99.90;;;;;;4897540;29;20064;-84
2020/12/16 08:19:01;;;;;;;148.45;47.83;;;6.10;99.90;;;;;;4900943;29;20024;-85
2020/12/16 08:21:27;;;;;;;136.32;44.08;;;6.10;99.90;;;;;;4882329;29;20080;-83
2020/12/16 08:23:54;;;;;;;174.18;51.38;;;6.10;99.90;;;;;;4904222;29;20045;-82
2020/12/16 08:26:23;;;;;;;140.27;45.92;;;6.10;99.90;;;;;;4907997;29;20036;-82
2020/12/16 08:28:49;;;;;;;129.05;48.47;;;6.00;99.90;;;;;;4905349;29;20029;-84
2020/12/16 08:31:29;;;;;;;163.70;50.25;;;6.10;99.90;;;;;;4899794;29;20033;-82
2020/12/16 08:33:56;;;;;;;126.53;44.05;;;6.10;99.90;;;;;;4912360;29;20088;-82
2020/12/16 08:36:24;;;;;;;143.68;46.65;;;6.10;99.90;;;;;;4914380;29;20028;-82
2020/12/16 08:38:51;;;;;;;145.00;47.65;;;6.10;99.90;;;;;;4920684;29;20036;-83
2020/12/16 08:41:28;;;;;;;108.97;44.10;;;6.10;99.90;;;;;;4913349;29;20039;-82
2020/12/16 08:43:55;;;;;;;112.55;45.03;;;6.10;99.90;;;;;;4919975;29;20042;-82
2020/12/16 08:46:26;;;;;;;189.88;59.58;;;6.20;99.90;;;;;;4880000;29;20056;-83
2020/12/16 08:49:02;;;;;;;109.10;47.53;;;6.10;99.90;;;;;;4918148;29;20052;-84
2020/12/16 08:51:42;;;;;;;93.95;43.67;;;6.10;99.90;;;;;;4912870;29;20081;-85
2020/12/16 08:54:10;;;;;;;142.60;49.88;;;6.20;99.90;;;;;;4919061;29;20081;-83
2020/12/16 08:56:43;;;;;;;131.98;47.03;;;6.20;99.90;;;;;;4914006;29;20024;-82
2020/12/16 08:59:26;;;;;;;129.93;44.83;;;6.10;99.90;;;;;;4914151;29;20061;-82
2020/12/16 09:02:07;;;;;;;186.52;55.97;;;6.10;99.90;;;;;;4919032;29;20029;-83
2020/12/16 09:04:41;;;;;;;118.53;44.05;;;6.00;99.90;;;;;;4917045;29;20021;-91
2020/12/16 09:07:26;;;;;;;159.80;47.10;;;6.00;99.90;;;;;;4921693;29;20017;-83
2020/12/16 09:09:55;;;;;;;126.18;46.20;;;6.10;99.90;;;;;;4922253;29;20060;-83
2020/12/16 09:12:22;;;;;;;145.57;47.50;;;6.10;99.90;;;;;;4920180;29;20033;-82
2020/12/16 09:14:49;;;;;;;109.20;42.92;;;6.10;99.90;;;;;;4918194;29;20026;-83
2020/12/16 09:17:15;;;;;;;130.35;44.28;;;6.10;99.90;;;;;;4914657;29;20032;-82
2020/12/16 09:19:41;;;;;;;168.32;50.53;;;6.10;99.90;;;;;;4905974;29;20035;-84
2020/12/16 09:22:07;;;;;;;165.98;52.22;;;6.00;99.90;;;;;;4921740;29;20017;-82
2020/12/16 09:24:33;;;;;;;134.88;46.50;;;6.10;99.90;;;;;;4901590;29;20017;-92
2020/12/16 09:27:08;;;;;;;119.10;47.08;;;6.20;99.90;;;;;;4918197;29;20028;-85
2020/12/16 09:29:35;;;;;;;104.82;41.85;;;6.20;99.90;;;;;;4919629;29;20088;-85
2020/12/16 09:32:15;;;;;;;131.48;47.47;;;6.30;99.90;;;;;;4917796;29;20056;-89
2020/12/16 09:34:49;;;;;;;122.57;46.80;;;6.20;99.90;;;;;;4935135;29;20036;-89
2020/12/16 09:37:17;;;;;;;99.13;43.77;;;6.20;99.90;;;;;;4934781;29;20048;-84
2020/12/16 09:39:44;;;;;;;107.85;44.60;;;6.20;99.90;;;;;;4916568;29;20765;-85
2020/12/16 09:42:14;;;;;;;164.50;57.05;;;6.30;99.90;;;;;;4894119;29;20053;-84
2020/12/16 09:44:41;;;;;;;99.85;44.13;;;6.20;99.90;;;;;;4902498;29;20040;-83
2020/12/16 09:47:21;;;;;;;94.20;41.25;;;6.30;99.90;;;;;;4916521;29;20040;-84
2020/12/16 09:50:01;;;;;;;92.93;43.22;;;6.30;99.90;;;;;;4915920;29;20451;-84
2020/12/16 09:52:29;;;;;;;99.45;41.70;;;6.30;99.90;;;;;;4918633;29;20066;-84
2020/12/16 09:54:55;;;;;;;112.72;45.47;;;6.40;99.90;;;;;;4919706;29;20055;-84
2020/12/16 09:57:22;;;;;;;106.55;43.42;;;6.30;99.90;;;;;;4898863;29;20098;-85
2020/12/16 09:59:50;;;;;;;87.15;40.10;;;6.30;99.90;;;;;;4923587;29;20035;-83
2020/12/16 10:02:17;;;;;;;101.95;44.20;;;6.40;99.90;;;;;;4903719;29;20043;-83
2020/12/16 10:04:53;;;;;;;91.50;41.75;;;6.40;99.90;;;;;;4922638;29;20116;-84
2020/12/16 10:07:20;;;;;;;114.18;47.65;;;6.40;99.90;;;;;;4936407;29;20095;-83
2020/12/16 10:09:52;;;;;;;96.88;44.70;;;6.40;99.90;;;;;;4920205;29;20064;-86
2020/12/16 10:12:19;;;;;;;116.90;48.97;;;6.50;99.90;;;;;;4904311;29;20036;-84
2020/12/16 10:14:45;;;;;;;100.68;45.45;;;6.50;99.90;;;;;;4903182;29;20494;-83
2020/12/16 10:17:11;;;;;;;88.95;44.78;;;6.40;99.90;;;;;;4919395;29;20161;-84
2020/12/16 10:19:36;;;;;;;109.90;50.00;;;6.50;99.90;;;;;;4918584;29;20493;-83
2020/12/16 10:22:02;;;;;;;94.03;44.63;;;6.50;99.90;;;;;;4921657;29;20493;-83
2020/12/16 10:24:27;;;;;;;107.93;47.90;;;6.60;99.90;;;;;;4919227;29;20036;-84
2020/12/16 10:26:53;;;;;;;103.35;47.88;;;6.70;99.90;;;;;;4904153;29;20044;-83
2020/12/16 10:29:19;;;;;;;94.88;47.00;;;6.60;99.90;;;;;;4919237;29;20450;-83
2020/12/16 10:31:51;;;;;;;99.75;45.72;;;6.70;99.90;;;;;;4903204;29;20035;-83
2020/12/16 10:34:17;;;;;;;96.47;44.33;;;6.60;99.90;;;;;;4921207;29;20072;-83
2020/12/16 10:36:43;;;;;;;80.13;41.55;;;6.60;99.90;;;;;;4899989;29;20029;-83
2020/12/16 10:39:09;;;;;;;104.00;50.53;;;6.60;99.90;;;;;;4904276;29;20047;-83
2020/12/16 10:41:36;;;;;;;94.10;46.55;;;6.50;99.90;;;;;;4915837;29;20024;-84
2020/12/16 10:44:01;;;;;;;91.10;46.63;;;6.60;99.90;;;;;;4914776;29;20063;-82
2020/12/16 10:46:27;;;;;;;80.10;40.50;;;6.50;99.90;;;;;;4900434;29;20037;-84
2020/12/16 10:48:53;;;;;;;81.38;44.00;;;6.60;99.90;;;;;;4886417;29;20052;-84
2020/12/16 10:51:18;;;;;;;90.05;43.83;;;6.70;99.90;;;;;;4900839;29;20025;-83
2020/12/16 10:53:44;;;;;;;86.50;44.45;;;6.70;99.90;;;;;;4884726;29;20498;-83
2020/12/16 10:56:12;;;;;;;101.80;50.60;;;6.60;99.90;;;;;;4885955;29;20044;-83
2020/12/16 10:58:38;;;;;;;81.28;46.15;;;6.60;99.90;;;;;;4900245;29;20048;-84
2020/12/16 11:01:03;;;;;;;91.65;47.30;;;6.70;99.90;;;;;;4887230;29;20032;-83
2020/12/16 11:03:29;;;;;;;85.15;46.80;;;6.60;99.90;;;;;;4885458;29;20033;-84
2020/12/16 11:05:54;;;;;;;77.28;43.40;;;6.70;99.90;;;;;;4918369;29;20040;-83
2020/12/16 11:08:20;;;;;;;89.35;47.92;;;6.70;99.90;;;;;;4898454;29;20133;-84
2020/12/16 11:10:52;;;;;;;85.90;47.25;;;6.80;99.90;;;;;;4902758;29;20051;-85
2020/12/16 11:13:18;;;;;;;77.47;44.90;;;6.90;99.90;;;;;;4900158;29;20056;-84
2020/12/16 11:15:45;;;;;;;83.68;45.88;;;7.00;99.90;;;;;;4903703;29;20064;-84
2020/12/16 11:18:11;;;;;;;77.03;43.70;;;7.10;99.90;;;;;;4899020;29;20036;-84
2020/12/16 11:20:36;;;;;;;81.53;44.42;;;7.20;99.90;;;;;;4902392;29;20111;-85
2020/12/16 11:23:02;;;;;;;63.83;38.92;;;7.20;99.90;;;;;;4891543;29;20044;-86
2020/12/16 11:25:28;;;;;;;74.28;44.03;;;7.30;99.90;;;;;;4904404;29;20430;-83
2020/12/16 11:27:54;;;;;;;61.97;39.13;;;7.40;99.90;;;;;;4888260;29;20071;-82
2020/12/16 11:30:19;;;;;;;54.22;35.88;;;7.40;99.90;;;;;;4901237;29;20064;-84
2020/12/16 11:32:45;;;;;;;58.47;37.05;;;7.40;99.90;;;;;;4886462;29;20037;-84
2020/12/16 11:35:11;;;;;;;50.97;32.63;;;7.40;99.90;;;;;;4884847;29;20037;-84
2020/12/16 11:37:42;;;;;;;41.95;29.83;;;7.40;99.90;;;;;;4901133;29;20518;-85
2020/12/16 11:40:08;;;;;;;41.60;29.00;;;7.50;99.90;;;;;;4886915;29;20028;-84
2020/12/16 11:42:33;;;;;;;42.25;30.08;;;7.50;99.90;;;;;;4905724;29;20044;-83
2020/12/16 11:44:59;;;;;;;42.40;27.40;;;7.60;99.90;;;;;;4901902;29;20036;-84
2020/12/16 11:47:25;;;;;;;38.30;27.63;;;7.70;99.90;;;;;;4900534;29;20156;-85
2020/12/16 11:49:50;;;;;;;39.72;29.40;;;7.70;99.90;;;;;;4885708;29;20040;-83
2020/12/16 11:52:16;;;;;;;34.15;25.73;;;7.90;99.90;;;;;;4883997;29;20043;-83
2020/12/16 11:54:42;;;;;;;32.47;23.33;;;8.20;99.90;;;;;;4916860;29;20045;-84
2020/12/16 11:57:07;;;;;;;32.95;21.85;;;8.30;99.90;;;;;;4893429;29;20029;-83
2020/12/16 11:59:33;;;;;;;30.67;21.60;;;8.40;99.90;;;;;;4900683;29;20061;-83
2020/12/16 12:02:02;;;;;;;31.33;21.20;;;8.50;99.90;;;;;;4886784;29;20127;-83
2020/12/16 12:04:28;;;;;;;29.92;20.48;;;8.50;99.90;;;;;;4899017;29;20507;-83
2020/12/16 12:06:54;;;;;;;28.25;19.92;;;8.60;99.90;;;;;;4902071;29;20032;-83
2020/12/16 12:09:24;;;;;;;26.05;19.17;;;8.60;99.90;;;;;;4883337;29;20036;-81
2020/12/16 12:11:52;;;;;;;30.30;21.35;;;8.60;99.90;;;;;;4917368;29;20474;-83
2020/12/16 12:14:18;;;;;;;26.95;19.95;;;8.50;99.90;;;;;;4900197;29;20368;-83
2020/12/16 12:16:50;;;;;;;26.85;19.60;;;8.60;99.90;;;;;;4898898;29;20508;-84
2020/12/16 12:19:16;;;;;;;24.77;18.75;;;8.60;99.90;;;;;;4922068;29;20032;-83
2020/12/16 12:21:42;;;;;;;23.48;18.35;;;8.60;99.90;;;;;;4883379;29;20029;-83
2020/12/16 12:24:10;;;;;;;30.95;19.92;;;8.60;99.90;;;;;;4919849;29;20122;-84
2020/12/16 12:26:36;;;;;;;23.75;17.63;;;8.60;99.90;;;;;;4918002;29;20044;-84
2020/12/16 12:29:02;;;;;;;24.23;19.25;;;8.60;99.90;;;;;;4901656;29;20113;-84
2020/12/16 12:31:28;;;;;;;24.92;18.65;;;8.60;99.90;;;;;;4884836;29;20037;-83
2020/12/16 12:33:54;;;;;;;21.80;17.40;;;8.60;99.90;;;;;;4900583;29;20060;-82
2020/12/16 12:36:19;;;;;;;25.67;18.23;;;8.60;99.90;;;;;;4918393;29;20038;-84